sensor_id;sensor_type;location;lat;lon;timestamp;pressure;altitude;pressure_sealevel;temperature;humidity
69971;BME280;57301;50.328;8.542;2023-01-31T00:01:36;99255.81;;;3.33;84.02
69971;BME280;57301;50.328;8.542;2023-01-31T00:04:08;99265.72;;;3.44;84.64
69971;BME280;57301;50.328;8.542;2023-01-31T00:06:41;99268.44;;;3.42;84.78
69971;BME280;57301;50.328;8.542;2023-01-31T00:09:09;99263.75;;;3.47;84.19
69971;BME280;57301;50.328;8.542;2023-01-31T00:11:36;99263.81;;;3.76;82.97
69971;BME280;57301;50.328;8.542;2023-01-31T00:14:05;99261.91;;;3.64;84.04
69971;BME280;57301;50.328;8.542;2023-01-31T00:16:33;99266.72;;;3.57;85.15
69971;BME280;57301;50.328;8.542;2023-01-31T00:19:00;99260.84;;;3.52;84.91
69971;BME280;57301;50.328;8.542;2023-01-31T00:21:28;99264.94;;;3.42;85.29
69971;BME280;57301;50.328;8.542;2023-01-31T00:23:56;99264.78;;;3.45;85.63
69971;BME280;57301;50.328;8.542;2023-01-31T00:26:32;99249.22;;;3.40;85.37
69971;BME280;57301;50.328;8.542;2023-01-31T00:29:00;99252.91;;;3.38;86.12
69971;BME280;57301;50.328;8.542;2023-01-31T00:31:29;99259.31;;;3.48;85.73
69971;BME280;57301;50.328;8.542;2023-01-31T00:33:56;99258.81;;;3.27;86.05
69971;BME280;57301;50.328;8.542;2023-01-31T00:36:26;99259.69;;;3.42;86.28
69971;BME280;57301;50.328;8.542;2023-01-31T00:38:57;99251.97;;;3.39;85.51
69971;BME280;57301;50.328;8.542;2023-01-31T00:41:25;99243.16;;;3.24;86.31
69971;BME280;57301;50.328;8.542;2023-01-31T00:43:52;99236.28;;;3.21;86.51
69971;BME280;57301;50.328;8.542;2023-01-31T00:46:19;99243.16;;;3.24;86.86
69971;BME280;57301;50.328;8.542;2023-01-31T00:48:46;99244.66;;;3.14;86.92
69971;BME280;57301;50.328;8.542;2023-01-31T00:51:12;99255.25;;;3.12;87.56
69971;BME280;57301;50.328;8.542;2023-01-31T00:53:39;99248.63;;;3.05;87.46
69971;BME280;57301;50.328;8.542;2023-01-31T00:56:11;99253.81;;;3.07;87.37
69971;BME280;57301;50.328;8.542;2023-01-31T00:58:38;99262.25;;;2.97;87.02
69971;BME280;57301;50.328;8.542;2023-01-31T01:01:12;99254.41;;;3.12;87.37
69971;BME280;57301;50.328;8.542;2023-01-31T01:03:41;99252.19;;;3.20;86.77
69971;BME280;57301;50.328;8.542;2023-01-31T01:06:08;99259.25;;;3.19;86.92
69971;BME280;57301;50.328;8.542;2023-01-31T01:08:37;99250.81;;;3.13;86.83
69971;BME280;57301;50.328;8.542;2023-01-31T01:11:06;99258.91;;;3.10;86.58
69971;BME280;57301;50.328;8.542;2023-01-31T01:13:33;99265.47;;;3.03;86.65
69971;BME280;57301;50.328;8.542;2023-01-31T01:16:13;99271.56;;;3.19;86.68
69971;BME280;57301;50.328;8.542;2023-01-31T01:18:40;99267.44;;;2.99;87.01
69971;BME280;57301;50.328;8.542;2023-01-31T01:21:12;99271.66;;;3.17;87.29
69971;BME280;57301;50.328;8.542;2023-01-31T01:23:39;99269.00;;;3.33;86.59
69971;BME280;57301;50.328;8.542;2023-01-31T01:26:22;99280.41;;;3.18;85.88
69971;BME280;57301;50.328;8.542;2023-01-31T01:28:49;99282.41;;;3.44;85.47
69971;BME280;57301;50.328;8.542;2023-01-31T01:31:17;99277.28;;;3.41;85.50
69971;BME280;57301;50.328;8.542;2023-01-31T01:33:45;99285.06;;;3.13;87.16
69971;BME280;57301;50.328;8.542;2023-01-31T01:36:14;99287.72;;;3.13;87.49
69971;BME280;57301;50.328;8.542;2023-01-31T01:38:47;99272.19;;;2.92;89.21
69971;BME280;57301;50.328;8.542;2023-01-31T01:41:13;99262.50;;;2.93;88.19
69971;BME280;57301;50.328;8.542;2023-01-31T01:43:45;99269.09;;;3.16;88.63
69971;BME280;57301;50.328;8.542;2023-01-31T01:46:22;99269.47;;;2.94;88.71
69971;BME280;57301;50.328;8.542;2023-01-31T01:48:54;99272.38;;;2.89;89.14
69971;BME280;57301;50.328;8.542;2023-01-31T01:51:22;99276.47;;;2.79;89.72
69971;BME280;57301;50.328;8.542;2023-01-31T01:53:52;99270.94;;;2.84;89.51
69971;BME280;57301;50.328;8.542;2023-01-31T01:56:24;99272.56;;;2.71;89.11
69971;BME280;57301;50.328;8.542;2023-01-31T01:59:18;99273.47;;;2.85;88.62
69971;BME280;57301;50.328;8.542;2023-01-31T02:01:46;99260.66;;;2.79;88.58
69971;BME280;57301;50.328;8.542;2023-01-31T02:04:16;99259.97;;;2.76;88.87
69971;BME280;57301;50.328;8.542;2023-01-31T02:06:45;99262.28;;;2.66;88.43
69971;BME280;57301;50.328;8.542;2023-01-31T02:09:28;99260.06;;;2.42;90.26
69971;BME280;57301;50.328;8.542;2023-01-31T02:11:57;99265.06;;;2.63;89.90
69971;BME280;57301;50.328;8.542;2023-01-31T02:14:25;99259.38;;;2.86;88.84
69971;BME280;57301;50.328;8.542;2023-01-31T02:16:52;99258.97;;;2.78;89.43
69971;BME280;57301;50.328;8.542;2023-01-31T02:19:26;99265.94;;;2.79;89.34
69971;BME280;57301;50.328;8.542;2023-01-31T02:28:03;99257.09;;;2.64;89.60
69971;BME280;57301;50.328;8.542;2023-01-31T02:33:31;99254.91;;;2.41;90.74
69971;BME280;57301;50.328;8.542;2023-01-31T02:44:53;99265.91;;;2.32;90.07
69971;BME280;57301;50.328;8.542;2023-01-31T02:52:45;99257.41;;;2.11;90.39
69971;BME280;57301;50.328;8.542;2023-01-31T02:55:25;99265.63;;;2.05;90.74
69971;BME280;57301;50.328;8.542;2023-01-31T02:58:13;99268.25;;;2.05;90.76
69971;BME280;57301;50.328;8.542;2023-01-31T03:00:43;99266.59;;;2.02;91.36
69971;BME280;57301;50.328;8.542;2023-01-31T03:03:26;99286.22;;;1.97;91.19
69971;BME280;57301;50.328;8.542;2023-01-31T03:09:07;99282.66;;;1.98;91.24
69971;BME280;57301;50.328;8.542;2023-01-31T03:14:30;99291.22;;;2.01;90.60
69971;BME280;57301;50.328;8.542;2023-01-31T03:17:14;99290.47;;;1.99;90.28
69971;BME280;57301;50.328;8.542;2023-01-31T03:20:23;99281.31;;;2.06;90.33
69971;BME280;57301;50.328;8.542;2023-01-31T03:23:07;99296.88;;;1.94;90.69
69971;BME280;57301;50.328;8.542;2023-01-31T03:25:37;99306.78;;;1.88;90.88
69971;BME280;57301;50.328;8.542;2023-01-31T03:28:12;99313.28;;;1.99;90.52
69971;BME280;57301;50.328;8.542;2023-01-31T03:30:46;99315.41;;;2.08;90.05
69971;BME280;57301;50.328;8.542;2023-01-31T03:33:22;99317.66;;;2.15;89.75
69971;BME280;57301;50.328;8.542;2023-01-31T03:35:56;99316.81;;;2.15;89.59
69971;BME280;57301;50.328;8.542;2023-01-31T03:38:28;99308.13;;;2.13;89.44
69971;BME280;57301;50.328;8.542;2023-01-31T03:41:01;99310.44;;;2.19;89.19
69971;BME280;57301;50.328;8.542;2023-01-31T03:43:39;99313.72;;;2.07;89.07
69971;BME280;57301;50.328;8.542;2023-01-31T03:46:12;99308.88;;;1.99;89.31
69971;BME280;57301;50.328;8.542;2023-01-31T03:48:45;99309.72;;;2.00;89.43
69971;BME280;57301;50.328;8.542;2023-01-31T03:51:19;99308.16;;;1.96;89.74
69971;BME280;57301;50.328;8.542;2023-01-31T03:53:57;99329.34;;;2.10;89.36
69971;BME280;57301;50.328;8.542;2023-01-31T03:56:34;99314.22;;;1.98;89.84
69971;BME280;57301;50.328;8.542;2023-01-31T03:59:07;99316.31;;;2.24;88.90
69971;BME280;57301;50.328;8.542;2023-01-31T04:01:37;99311.81;;;2.26;88.48
69971;BME280;57301;50.328;8.542;2023-01-31T04:04:11;99320.69;;;2.41;88.27
69971;BME280;57301;50.328;8.542;2023-01-31T04:06:40;99322.66;;;2.53;86.84
69971;BME280;57301;50.328;8.542;2023-01-31T04:09:07;99321.72;;;2.54;86.21
69971;BME280;57301;50.328;8.542;2023-01-31T04:11:38;99322.84;;;2.66;86.58
69971;BME280;57301;50.328;8.542;2023-01-31T04:14:06;99308.56;;;2.54;86.51
69971;BME280;57301;50.328;8.542;2023-01-31T04:16:33;99312.03;;;2.55;86.37
69971;BME280;57301;50.328;8.542;2023-01-31T04:18:59;99302.94;;;2.45;86.85
69971;BME280;57301;50.328;8.542;2023-01-31T04:21:26;99305.69;;;2.59;86.37
69971;BME280;57301;50.328;8.542;2023-01-31T04:23:52;99300.47;;;2.57;86.40
69971;BME280;57301;50.328;8.542;2023-01-31T04:26:19;99300.47;;;2.57;85.99
69971;BME280;57301;50.328;8.542;2023-01-31T04:28:45;99299.22;;;2.49;86.14
69971;BME280;57301;50.328;8.542;2023-01-31T04:31:11;99293.06;;;2.32;86.51
69971;BME280;57301;50.328;8.542;2023-01-31T04:33:38;99292.81;;;2.21;86.94
69971;BME280;57301;50.328;8.542;2023-01-31T04:36:05;99290.63;;;2.29;86.39
69971;BME280;57301;50.328;8.542;2023-01-31T04:38:31;99294.78;;;2.33;86.00
69971;BME280;57301;50.328;8.542;2023-01-31T04:40:58;99279.81;;;2.18;86.40
69971;BME280;57301;50.328;8.542;2023-01-31T04:43:24;99287.06;;;1.97;87.25
69971;BME280;57301;50.328;8.542;2023-01-31T04:45:51;99275.44;;;2.01;87.00
69971;BME280;57301;50.328;8.542;2023-01-31T04:48:17;99278.06;;;2.01;87.14
69971;BME280;57301;50.328;8.542;2023-01-31T04:50:44;99281.06;;;2.11;86.55
69971;BME280;57301;50.328;8.542;2023-01-31T04:53:11;99275.38;;;2.03;86.73
69971;BME280;57301;50.328;8.542;2023-01-31T04:55:37;99270.44;;;1.97;87.04
69971;BME280;57301;50.328;8.542;2023-01-31T04:58:04;99277.78;;;1.90;86.82
69971;BME280;57301;50.328;8.542;2023-01-31T05:00:32;99280.03;;;1.80;86.93
69971;BME280;57301;50.328;8.542;2023-01-31T05:02:59;99282.16;;;1.74;87.08
69971;BME280;57301;50.328;8.542;2023-01-31T05:05:26;99289.81;;;1.61;87.45
69971;BME280;57301;50.328;8.542;2023-01-31T05:07:53;99274.03;;;1.61;87.50
69971;BME280;57301;50.328;8.542;2023-01-31T05:10:19;99283.00;;;1.40;89.37
69971;BME280;57301;50.328;8.542;2023-01-31T05:12:46;99270.16;;;1.33;89.81
69971;BME280;57301;50.328;8.542;2023-01-31T05:15:12;99274.13;;;1.42;89.28
69971;BME280;57301;50.328;8.542;2023-01-31T05:17:39;99269.19;;;1.36;88.82
69971;BME280;57301;50.328;8.542;2023-01-31T05:20:05;99262.28;;;1.33;88.52
69971;BME280;57301;50.328;8.542;2023-01-31T05:22:33;99267.22;;;1.22;88.34
69971;BME280;57301;50.328;8.542;2023-01-31T05:24:59;99264.22;;;1.13;89.03
69971;BME280;57301;50.328;8.542;2023-01-31T05:27:26;99269.44;;;0.95;89.30
69971;BME280;57301;50.328;8.542;2023-01-31T05:29:53;99273.75;;;0.96;89.49
69971;BME280;57301;50.328;8.542;2023-01-31T05:32:19;99275.91;;;0.88;89.25
69971;BME280;57301;50.328;8.542;2023-01-31T05:34:46;99261.47;;;0.97;89.51
69971;BME280;57301;50.328;8.542;2023-01-31T05:37:12;99267.09;;;0.89;89.39
69971;BME280;57301;50.328;8.542;2023-01-31T05:39:39;99264.81;;;0.64;89.79
69971;BME280;57301;50.328;8.542;2023-01-31T05:42:05;99260.78;;;0.57;90.72
69971;BME280;57301;50.328;8.542;2023-01-31T05:44:32;99264.19;;;0.40;91.15
69971;BME280;57301;50.328;8.542;2023-01-31T05:46:58;99267.16;;;0.33;91.00
69971;BME280;57301;50.328;8.542;2023-01-31T05:49:26;99257.94;;;0.24;91.73
69971;BME280;57301;50.328;8.542;2023-01-31T05:51:59;99262.19;;;0.26;91.50
69971;BME280;57301;50.328;8.542;2023-01-31T05:54:26;99251.44;;;0.14;91.36
69971;BME280;57301;50.328;8.542;2023-01-31T05:56:52;99255.44;;;0.02;91.92
69971;BME280;57301;50.328;8.542;2023-01-31T05:59:19;99253.47;;;0.07;91.64
69971;BME280;57301;50.328;8.542;2023-01-31T06:01:45;99255.28;;;0.05;91.67
69971;BME280;57301;50.328;8.542;2023-01-31T06:04:12;99246.59;;;0.05;91.08
69971;BME280;57301;50.328;8.542;2023-01-31T06:06:38;99239.91;;;-0.03;91.59
69971;BME280;57301;50.328;8.542;2023-01-31T06:09:05;99248.34;;;-0.15;90.89
69971;BME280;57301;50.328;8.542;2023-01-31T06:11:31;99245.78;;;-0.16;92.82
69971;BME280;57301;50.328;8.542;2023-01-31T06:13:58;99249.91;;;-0.11;93.54
69971;BME280;57301;50.328;8.542;2023-01-31T06:16:25;99257.44;;;-0.03;94.12
69971;BME280;57301;50.328;8.542;2023-01-31T06:18:51;99251.63;;;0.09;94.01
69971;BME280;57301;50.328;8.542;2023-01-31T06:21:18;99259.13;;;0.17;93.40
69971;BME280;57301;50.328;8.542;2023-01-31T06:23:44;99266.97;;;0.37;93.15
69971;BME280;57301;50.328;8.542;2023-01-31T06:26:13;99257.59;;;0.50;92.90
69971;BME280;57301;50.328;8.542;2023-01-31T06:28:39;99259.19;;;0.72;93.05
69971;BME280;57301;50.328;8.542;2023-01-31T06:31:07;99260.78;;;0.93;92.14
69971;BME280;57301;50.328;8.542;2023-01-31T06:33:34;99251.16;;;1.11;91.92
69971;BME280;57301;50.328;8.542;2023-01-31T06:36:11;99256.25;;;1.14;91.30
69971;BME280;57301;50.328;8.542;2023-01-31T06:38:38;99254.66;;;1.29;91.25
69971;BME280;57301;50.328;8.542;2023-01-31T06:41:04;99254.63;;;1.46;90.58
69971;BME280;57301;50.328;8.542;2023-01-31T06:43:31;99260.38;;;1.54;90.25
69971;BME280;57301;50.328;8.542;2023-01-31T06:45:58;99261.53;;;1.49;90.29
69971;BME280;57301;50.328;8.542;2023-01-31T06:48:24;99252.63;;;1.51;90.04
69971;BME280;57301;50.328;8.542;2023-01-31T06:50:51;99257.03;;;1.68;89.88
69971;BME280;57301;50.328;8.542;2023-01-31T06:53:17;99265.84;;;1.67;89.43
69971;BME280;57301;50.328;8.542;2023-01-31T06:55:44;99265.44;;;1.75;89.24
69971;BME280;57301;50.328;8.542;2023-01-31T06:58:10;99263.66;;;1.75;89.28
69971;BME280;57301;50.328;8.542;2023-01-31T07:00:36;99255.53;;;1.80;88.95
69971;BME280;57301;50.328;8.542;2023-01-31T07:03:03;99255.53;;;1.80;89.03
69971;BME280;57301;50.328;8.542;2023-01-31T07:05:29;99249.25;;;1.82;88.14
69971;BME280;57301;50.328;8.542;2023-01-31T07:07:56;99246.22;;;1.90;87.81
69971;BME280;57301;50.328;8.542;2023-01-31T07:10:22;99248.50;;;1.80;88.22
69971;BME280;57301;50.328;8.542;2023-01-31T07:12:49;99262.03;;;1.73;88.63
69971;BME280;57301;50.328;8.542;2023-01-31T07:15:15;99255.34;;;1.83;88.26
69971;BME280;57301;50.328;8.542;2023-01-31T07:17:42;99259.09;;;1.79;87.84
69971;BME280;57301;50.328;8.542;2023-01-31T07:20:10;99259.69;;;1.84;87.91
69971;BME280;57301;50.328;8.542;2023-01-31T07:22:36;99255.22;;;1.86;87.53
69971;BME280;57301;50.328;8.542;2023-01-31T07:25:03;99267.50;;;1.85;87.44
69971;BME280;57301;50.328;8.542;2023-01-31T07:27:30;99263.06;;;2.03;87.45
69971;BME280;57301;50.328;8.542;2023-01-31T07:29:56;99262.31;;;2.17;86.69
69971;BME280;57301;50.328;8.542;2023-01-31T07:32:27;99266.66;;;2.18;86.35
69971;BME280;57301;50.328;8.542;2023-01-31T07:34:54;99263.88;;;2.21;86.60
69971;BME280;57301;50.328;8.542;2023-01-31T07:37:20;99256.69;;;2.40;84.98
69971;BME280;57301;50.328;8.542;2023-01-31T07:39:46;99252.00;;;2.46;85.23
69971;BME280;57301;50.328;8.542;2023-01-31T07:42:13;99261.47;;;2.32;85.34
69971;BME280;57301;50.328;8.542;2023-01-31T07:44:39;99257.06;;;2.33;84.85
69971;BME280;57301;50.328;8.542;2023-01-31T07:47:06;99252.94;;;2.29;85.24
69971;BME280;57301;50.328;8.542;2023-01-31T07:49:32;99257.06;;;2.33;84.77
69971;BME280;57301;50.328;8.542;2023-01-31T07:52:00;99253.19;;;2.40;84.36
69971;BME280;57301;50.328;8.542;2023-01-31T07:54:27;99242.41;;;2.45;84.03
69971;BME280;57301;50.328;8.542;2023-01-31T07:56:53;99250.97;;;2.64;83.76
69971;BME280;57301;50.328;8.542;2023-01-31T07:59:20;99259.13;;;2.43;84.03
69971;BME280;57301;50.328;8.542;2023-01-31T08:01:46;99264.25;;;2.47;83.60
69971;BME280;57301;50.328;8.542;2023-01-31T08:04:32;99260.41;;;2.68;83.69
69971;BME280;57301;50.328;8.542;2023-01-31T08:06:59;99268.50;;;2.65;83.25
69971;BME280;57301;50.328;8.542;2023-01-31T08:09:28;99262.59;;;2.76;82.77
69971;BME280;57301;50.328;8.542;2023-01-31T08:11:55;99271.09;;;2.81;82.06
69971;BME280;57301;50.328;8.542;2023-01-31T08:14:21;99281.81;;;2.78;81.96
69971;BME280;57301;50.328;8.542;2023-01-31T08:16:53;99268.56;;;2.79;82.91
69971;BME280;57301;50.328;8.542;2023-01-31T08:19:21;99272.59;;;3.01;82.23
69971;BME280;57301;50.328;8.542;2023-01-31T08:21:48;99265.19;;;2.77;82.73
69971;BME280;57301;50.328;8.542;2023-01-31T08:24:14;99268.81;;;2.75;82.87
69971;BME280;57301;50.328;8.542;2023-01-31T08:26:41;99257.09;;;2.64;83.61
69971;BME280;57301;50.328;8.542;2023-01-31T08:29:08;99245.53;;;2.67;83.43
69971;BME280;57301;50.328;8.542;2023-01-31T08:31:35;99250.97;;;2.64;84.05
69971;BME280;57301;50.328;8.542;2023-01-31T08:34:01;99248.00;;;2.70;83.87
69971;BME280;57301;50.328;8.542;2023-01-31T08:36:30;99259.38;;;2.55;84.27
69971;BME280;57301;50.328;8.542;2023-01-31T08:38:59;99249.13;;;2.66;83.82
69971;BME280;57301;50.328;8.542;2023-01-31T08:41:27;99256.59;;;2.58;84.05
69971;BME280;57301;50.328;8.542;2023-01-31T08:43:55;99259.47;;;2.69;84.26
69971;BME280;57301;50.328;8.542;2023-01-31T08:46:27;99249.81;;;2.54;84.43
69971;BME280;57301;50.328;8.542;2023-01-31T08:48:56;99241.47;;;2.61;84.31
69971;BME280;57301;50.328;8.542;2023-01-31T08:51:23;99233.06;;;2.71;84.09
69971;BME280;57301;50.328;8.542;2023-01-31T08:53:50;99236.50;;;2.87;83.68
69971;BME280;57301;50.328;8.542;2023-01-31T08:56:17;99240.25;;;2.99;82.22
69971;BME280;57301;50.328;8.542;2023-01-31T08:58:44;99217.84;;;3.21;81.00
69971;BME280;57301;50.328;8.542;2023-01-31T09:01:17;99243.97;;;3.55;81.03
69971;BME280;57301;50.328;8.542;2023-01-31T09:03:45;99263.16;;;3.42;81.02
69971;BME280;57301;50.328;8.542;2023-01-31T09:06:20;99273.41;;;3.77;79.56
69971;BME280;57301;50.328;8.542;2023-01-31T09:08:46;99276.16;;;3.90;78.63
69971;BME280;57301;50.328;8.542;2023-01-31T09:11:14;99278.75;;;3.61;78.39
69971;BME280;57301;50.328;8.542;2023-01-31T09:13:45;99266.59;;;3.44;79.02
69971;BME280;57301;50.328;8.542;2023-01-31T09:16:13;99251.84;;;3.70;78.91
69971;BME280;57301;50.328;8.542;2023-01-31T09:18:41;99252.84;;;3.68;78.65
69971;BME280;57301;50.328;8.542;2023-01-31T09:21:10;99250.38;;;3.81;78.60
69971;BME280;57301;50.328;8.542;2023-01-31T09:23:37;99252.31;;;3.63;78.67
69971;BME280;57301;50.328;8.542;2023-01-31T09:26:08;99262.59;;;3.82;78.24
69971;BME280;57301;50.328;8.542;2023-01-31T09:28:36;99252.06;;;3.82;78.24
69971;BME280;57301;50.328;8.542;2023-01-31T09:31:09;99253.66;;;3.84;76.94
69971;BME280;57301;50.328;8.542;2023-01-31T09:33:36;99250.91;;;3.71;77.84
69971;BME280;57301;50.328;8.542;2023-01-31T09:36:08;99243.03;;;3.56;78.80
69971;BME280;57301;50.328;8.542;2023-01-31T09:38:35;99221.88;;;3.57;79.05
69971;BME280;57301;50.328;8.542;2023-01-31T09:41:04;99221.78;;;3.59;78.95
69971;BME280;57301;50.328;8.542;2023-01-31T09:43:40;99219.72;;;3.64;78.56
69971;BME280;57301;50.328;8.542;2023-01-31T09:46:15;99216.59;;;3.71;78.91
69971;BME280;57301;50.328;8.542;2023-01-31T09:48:46;99206.72;;;3.89;78.16
69971;BME280;57301;50.328;8.542;2023-01-31T09:51:15;99210.59;;;3.84;78.45
69971;BME280;57301;50.328;8.542;2023-01-31T09:53:42;99216.44;;;3.74;78.27
69971;BME280;57301;50.328;8.542;2023-01-31T09:59:06;99213.41;;;3.95;77.84
69971;BME280;57301;50.328;8.542;2023-01-31T10:07:28;99231.00;;;3.66;79.50
69971;BME280;57301;50.328;8.542;2023-01-31T10:10:07;99239.19;;;3.61;79.35
69971;BME280;57301;50.328;8.542;2023-01-31T10:12:43;99230.38;;;3.62;79.65
69971;BME280;57301;50.328;8.542;2023-01-31T10:18:08;99217.06;;;3.92;78.82
69971;BME280;57301;50.328;8.542;2023-01-31T10:20:45;99205.94;;;3.59;79.86
69971;BME280;57301;50.328;8.542;2023-01-31T10:23:30;99200.47;;;3.62;79.35
69971;BME280;57301;50.328;8.542;2023-01-31T10:26:01;99200.84;;;3.56;79.28
69971;BME280;57301;50.328;8.542;2023-01-31T10:28:38;99193.63;;;3.88;78.94
69971;BME280;57301;50.328;8.542;2023-01-31T10:36:13;99202.50;;;3.87;78.33
69971;BME280;57301;50.328;8.542;2023-01-31T10:39:04;99209.81;;;4.10;77.75
69971;BME280;57301;50.328;8.542;2023-01-31T10:44:52;99189.63;;;4.23;78.04
69971;BME280;57301;50.328;8.542;2023-01-31T10:47:23;99185.16;;;3.83;78.04
69971;BME280;57301;50.328;8.542;2023-01-31T10:49:50;99180.59;;;3.99;78.04
69971;BME280;57301;50.328;8.542;2023-01-31T10:52:44;99187.44;;;3.74;78.67
69971;BME280;57301;50.328;8.542;2023-01-31T10:57:45;99182.97;;;4.03;77.96
69971;BME280;57301;50.328;8.542;2023-01-31T11:00:18;99182.50;;;3.97;77.64
69971;BME280;57301;50.328;8.542;2023-01-31T11:02:46;99173.72;;;4.11;78.61
69971;BME280;57301;50.328;8.542;2023-01-31T11:05:18;99150.28;;;4.06;78.21
69971;BME280;57301;50.328;8.542;2023-01-31T11:07:46;99147.75;;;3.90;77.92
69971;BME280;57301;50.328;8.542;2023-01-31T11:10:23;99144.34;;;3.74;78.59
69971;BME280;57301;50.328;8.542;2023-01-31T11:12:56;99151.50;;;4.00;78.77
69971;BME280;57301;50.328;8.542;2023-01-31T11:15:25;99163.84;;;4.00;78.65
69971;BME280;57301;50.328;8.542;2023-01-31T11:18:00;99147.75;;;3.90;79.17
69971;BME280;57301;50.328;8.542;2023-01-31T11:20:33;99142.31;;;4.20;78.09
69971;BME280;57301;50.328;8.542;2023-01-31T11:23:02;99130.38;;;4.15;77.50
69971;BME280;57301;50.328;8.542;2023-01-31T11:25:31;99122.72;;;4.10;77.38
69971;BME280;57301;50.328;8.542;2023-01-31T11:28:00;99116.97;;;4.18;77.98
69971;BME280;57301;50.328;8.542;2023-01-31T11:30:31;99112.34;;;4.21;77.95
69971;BME280;57301;50.328;8.542;2023-01-31T11:33:00;99111.53;;;4.34;76.50
69971;BME280;57301;50.328;8.542;2023-01-31T11:35:32;99101.66;;;4.23;76.81
69971;BME280;57301;50.328;8.542;2023-01-31T11:45:46;99063.09;;;4.47;76.74
69971;BME280;57301;50.328;8.542;2023-01-31T11:48:24;99069.16;;;4.49;76.69
69971;BME280;57301;50.328;8.542;2023-01-31T11:50:57;99071.28;;;4.57;76.65
69971;BME280;57301;50.328;8.542;2023-01-31T11:53:29;99068.94;;;4.52;75.64
69971;BME280;57301;50.328;8.542;2023-01-31T11:56:09;99083.13;;;4.64;75.68
69971;BME280;57301;50.328;8.542;2023-01-31T11:58:38;99072.09;;;4.97;75.62
69971;BME280;57301;50.328;8.542;2023-01-31T12:01:15;99053.06;;;4.79;75.76
69971;BME280;57301;50.328;8.542;2023-01-31T12:03:47;99052.44;;;4.36;75.85
69971;BME280;57301;50.328;8.542;2023-01-31T12:08:57;99036.00;;;4.58;76.97
69971;BME280;57301;50.328;8.542;2023-01-31T12:11:35;99047.56;;;4.82;75.45
69971;BME280;57301;50.328;8.542;2023-01-31T12:16:33;99031.81;;;4.81;75.15
69971;BME280;57301;50.328;8.542;2023-01-31T12:19:31;99029.47;;;4.76;75.04
69971;BME280;57301;50.328;8.542;2023-01-31T12:22:17;99018.59;;;4.94;74.36
69971;BME280;57301;50.328;8.542;2023-01-31T12:24:59;99021.25;;;5.06;74.60
69971;BME280;57301;50.328;8.542;2023-01-31T12:27:33;99012.59;;;5.04;74.97
69971;BME280;57301;50.328;8.542;2023-01-31T12:30:14;99010.31;;;5.36;73.89
69971;BME280;57301;50.328;8.542;2023-01-31T12:35:27;99008.66;;;5.35;73.75
69971;BME280;57301;50.328;8.542;2023-01-31T12:57:05;98984.44;;;4.91;75.51
69971;BME280;57301;50.328;8.542;2023-01-31T12:59:49;98971.72;;;5.47;74.27
69971;BME280;57301;50.328;8.542;2023-01-31T13:02:26;98959.16;;;5.61;73.28
69971;BME280;57301;50.328;8.542;2023-01-31T13:07:39;98946.91;;;5.60;74.39
69971;BME280;57301;50.328;8.542;2023-01-31T13:10:27;98925.94;;;5.21;75.13
69971;BME280;57301;50.328;8.542;2023-01-31T13:12:57;98932.06;;;5.58;74.23
69971;BME280;57301;50.328;8.542;2023-01-31T13:15:29;98938.75;;;6.11;72.40
69971;BME280;57301;50.328;8.542;2023-01-31T13:18:01;98939.91;;;6.42;70.17
69971;BME280;57301;50.328;8.542;2023-01-31T13:20:38;98944.50;;;6.05;71.81
69971;BME280;57301;50.328;8.542;2023-01-31T13:23:12;98944.16;;;5.86;71.93
69971;BME280;57301;50.328;8.542;2023-01-31T13:25:45;98940.91;;;5.46;74.11
69971;BME280;57301;50.328;8.542;2023-01-31T13:28:27;98933.50;;;5.75;74.23
69971;BME280;57301;50.328;8.542;2023-01-31T13:31:00;98943.84;;;5.54;74.22
69971;BME280;57301;50.328;8.542;2023-01-31T13:33:48;98948.69;;;5.60;74.66
69971;BME280;57301;50.328;8.542;2023-01-31T13:38:48;98944.31;;;4.85;78.41
69971;BME280;57301;50.328;8.542;2023-01-31T13:43:44;98921.06;;;5.27;77.10
69971;BME280;57301;50.328;8.542;2023-01-31T13:46:12;98927.78;;;5.07;77.20
69971;BME280;57301;50.328;8.542;2023-01-31T13:48:47;98928.88;;;4.79;79.09
69971;BME280;57301;50.328;8.542;2023-01-31T13:51:19;98935.84;;;4.93;79.25
69971;BME280;57301;50.328;8.542;2023-01-31T13:56:27;98940.28;;;4.93;79.33
69971;BME280;57301;50.328;8.542;2023-01-31T13:58:55;98930.16;;;4.74;79.64
69971;BME280;57301;50.328;8.542;2023-01-31T14:01:27;98925.28;;;4.42;82.63
69971;BME280;57301;50.328;8.542;2023-01-31T14:14:48;98931.66;;;4.00;89.35
69971;BME280;57301;50.328;8.542;2023-01-31T14:22:23;98930.72;;;4.14;87.88
69971;BME280;57301;50.328;8.542;2023-01-31T14:35:21;98921.28;;;4.49;87.88
69971;BME280;57301;50.328;8.542;2023-01-31T14:38:12;98915.97;;;4.24;85.95
69971;BME280;57301;50.328;8.542;2023-01-31T14:40:48;98909.66;;;4.39;86.12
69971;BME280;57301;50.328;8.542;2023-01-31T14:46:43;98903.41;;;4.40;85.52
69971;BME280;57301;50.328;8.542;2023-01-31T14:52:14;98904.47;;;4.50;85.09
69971;BME280;57301;50.328;8.542;2023-01-31T14:57:46;98910.47;;;4.78;83.94
69971;BME280;57301;50.328;8.542;2023-01-31T15:13:52;98894.34;;;4.57;84.04
69971;BME280;57301;50.328;8.542;2023-01-31T15:16:22;98901.28;;;4.71;84.02
69971;BME280;57301;50.328;8.542;2023-01-31T15:21:49;98905.19;;;4.65;84.67
69971;BME280;57301;50.328;8.542;2023-01-31T15:24:30;98918.50;;;4.89;84.59
69971;BME280;57301;50.328;8.542;2023-01-31T15:27:16;98935.53;;;4.85;83.92
69971;BME280;57301;50.328;8.542;2023-01-31T15:29:50;98931.84;;;4.75;85.03
69971;BME280;57301;50.328;8.542;2023-01-31T15:32:25;98924.53;;;4.78;84.19
69971;BME280;57301;50.328;8.542;2023-01-31T15:35:04;98924.53;;;4.91;83.39
69971;BME280;57301;50.328;8.542;2023-01-31T15:37:33;98922.75;;;4.79;84.15
69971;BME280;57301;50.328;8.542;2023-01-31T15:40:22;98912.91;;;4.81;83.38
69971;BME280;57301;50.328;8.542;2023-01-31T15:42:49;98903.19;;;4.81;83.74
69971;BME280;57301;50.328;8.542;2023-01-31T15:45:25;98911.75;;;4.72;83.84
69971;BME280;57301;50.328;8.542;2023-01-31T15:50:34;98921.16;;;4.89;83.49
69971;BME280;57301;50.328;8.542;2023-01-31T15:53:03;98910.28;;;4.81;84.34
69971;BME280;57301;50.328;8.542;2023-01-31T15:55:32;98924.44;;;4.67;85.08
69971;BME280;57301;50.328;8.542;2023-01-31T15:58:01;98926.75;;;4.84;83.68
69971;BME280;57301;50.328;8.542;2023-01-31T16:00:33;98920.19;;;4.90;83.78